Time;durP1;ratioP1;P1;durP2;ratioP2;P2;SDS_P1;SDS_P2;PMS_P1;PMS_P2;Temp;Humidity;BMP_temperature;BMP_pressure;BME280_temperature;BME280_humidity;BME280_pressure;Samples;Min_cycle;Max_cycle;Signal;HPM_P1;HPM_P2
2022/03/04 00:01:19;;;;;;;49.97;27.75;;;2.60;99.90;;;;;;4996435;28;20085;-78
2022/03/04 00:03:45;;;;;;;54.78;29.13;;;2.50;99.90;;;;;;4996922;28;20027;-78
2022/03/04 00:06:11;;;;;;;53.10;28.33;;;2.50;99.90;;;;;;4996862;28;20054;-78
2022/03/04 00:08:36;;;;;;;54.78;28.83;;;2.50;99.90;;;;;;5017306;23;20078;-73
2022/03/04 00:11:02;;;;;;;57.30;28.63;;;2.50;99.90;;;;;;4997012;28;20486;-75
2022/03/04 00:13:30;;;;;;;52.63;27.65;;;2.50;99.90;;;;;;4995961;28;20459;-74
2022/03/04 00:15:56;;;;;;;57.58;29.30;;;2.60;99.90;;;;;;4993588;28;20081;-74
2022/03/04 00:18:22;;;;;;;62.25;29.92;;;2.60;99.90;;;;;;4998207;28;20030;-73
2022/03/04 00:20:47;;;;;;;57.83;29.20;;;2.50;99.90;;;;;;4997793;28;20026;-74
2022/03/04 00:23:14;;;;;;;61.88;31.10;;;2.40;99.90;;;;;;4998805;28;20027;-72
2022/03/04 00:25:39;;;;;;;59.30;30.30;;;2.50;99.90;;;;;;4997398;28;20030;-73
2022/03/04 00:28:05;;;;;;;69.05;32.17;;;2.40;99.90;;;;;;4998739;28;20080;-73
2022/03/04 00:30:31;;;;;;;64.18;31.10;;;2.40;99.90;;;;;;4999650;28;20029;-74
2022/03/04 00:32:57;;;;;;;60.35;32.30;;;2.40;99.90;;;;;;5002923;28;20030;-72
2022/03/04 00:35:23;;;;;;;66.10;30.85;;;2.30;99.90;;;;;;5000055;28;20023;-73
2022/03/04 00:37:48;;;;;;;61.22;30.95;;;2.30;99.90;;;;;;4997012;28;20038;-74
2022/03/04 00:40:14;;;;;;;77.55;32.15;;;2.20;99.90;;;;;;4994496;28;20085;-74
2022/03/04 00:42:40;;;;;;;102.95;30.50;;;2.20;99.90;;;;;;4994911;28;20395;-73
2022/03/04 00:45:06;;;;;;;94.57;30.98;;;2.20;99.90;;;;;;4995723;28;20089;-73
2022/03/04 00:47:32;;;;;;;78.78;29.02;;;2.00;99.90;;;;;;4993951;28;20028;-73
2022/03/04 00:49:58;;;;;;;58.63;29.38;;;1.90;99.90;;;;;;4994059;28;20113;-73
2022/03/04 00:52:24;;;;;;;86.25;30.30;;;1.90;99.90;;;;;;4994242;28;20025;-72
2022/03/04 00:54:49;;;;;;;62.92;30.77;;;1.90;99.90;;;;;;4994514;28;20035;-74
2022/03/04 00:57:15;;;;;;;59.60;29.80;;;1.90;99.90;;;;;;4994606;28;20072;-74
2022/03/04 00:59:41;;;;;;;72.43;31.88;;;1.80;99.90;;;;;;4995723;28;20506;-74
2022/03/04 01:02:07;;;;;;;70.40;32.10;;;1.80;99.90;;;;;;4994371;28;20034;-74
2022/03/04 01:04:32;;;;;;;62.85;30.90;;;1.80;99.90;;;;;;4994281;28;20052;-73
2022/03/04 01:06:58;;;;;;;62.78;30.40;;;1.90;99.90;;;;;;4998141;28;20049;-72
2022/03/04 01:09:24;;;;;;;58.72;29.38;;;1.90;99.90;;;;;;5002263;28;20452;-73
2022/03/04 01:11:49;;;;;;;55.72;27.88;;;1.90;99.90;;;;;;4998155;28;20080;-74
2022/03/04 01:14:15;;;;;;;53.70;27.33;;;1.90;99.90;;;;;;4993735;28;20029;-73
2022/03/04 01:16:40;;;;;;;53.35;27.35;;;1.90;99.90;;;;;;4993358;28;20025;-73
2022/03/04 01:19:06;;;;;;;56.60;26.55;;;1.80;99.90;;;;;;4993577;28;20037;-74
2022/03/04 01:21:31;;;;;;;53.58;26.08;;;1.80;99.90;;;;;;4993662;28;20391;-74
2022/03/04 01:23:57;;;;;;;53.47;26.95;;;1.70;99.90;;;;;;4993802;28;20069;-74
2022/03/04 01:26:23;;;;;;;91.22;25.08;;;1.70;99.90;;;;;;4993357;28;20030;-74
2022/03/04 01:28:48;;;;;;;52.08;25.80;;;1.70;99.90;;;;;;4992728;28;20030;-71
2022/03/04 01:31:15;;;;;;;55.13;26.42;;;1.70;99.90;;;;;;4992450;28;20022;-74
2022/03/04 01:33:41;;;;;;;50.15;26.27;;;1.70;99.90;;;;;;4993491;28;20616;-74
2022/03/04 01:36:07;;;;;;;48.33;25.50;;;1.60;99.90;;;;;;4993103;28;20026;-75
2022/03/04 01:38:33;;;;;;;53.45;27.60;;;1.70;99.90;;;;;;4993435;28;20506;-72
2022/03/04 01:40:58;;;;;;;48.95;25.85;;;1.70;99.90;;;;;;4993290;28;20026;-75
2022/03/04 01:43:24;;;;;;;49.47;26.25;;;1.70;99.90;;;;;;4992653;28;20031;-74
2022/03/04 01:45:50;;;;;;;51.30;26.73;;;1.70;99.90;;;;;;4990236;28;20026;-75
2022/03/04 01:48:19;;;;;;;50.97;27.73;;;1.80;99.90;;;;;;4992395;28;20036;-75
2022/03/04 01:50:48;;;;;;;58.05;28.60;;;1.80;99.90;;;;;;4992707;28;20091;-73
2022/03/04 01:53:13;;;;;;;62.47;29.13;;;1.80;99.90;;;;;;4992569;28;20086;-74
2022/03/04 01:55:39;;;;;;;52.47;27.35;;;1.80;99.90;;;;;;4992307;28;20109;-73
2022/03/04 01:58:04;;;;;;;55.47;29.83;;;1.90;99.90;;;;;;4993306;28;20454;-75
2022/03/04 02:00:30;;;;;;;63.05;28.92;;;1.90;99.90;;;;;;4993812;28;20026;-74
2022/03/04 02:02:57;;;;;;;62.22;26.98;;;1.90;99.90;;;;;;4994187;28;20080;-74
2022/03/04 02:05:23;;;;;;;65.85;29.70;;;1.90;99.90;;;;;;4992789;28;20106;-73
2022/03/04 02:07:48;;;;;;;59.55;29.42;;;1.90;99.90;;;;;;4991212;28;20030;-74
2022/03/04 02:10:14;;;;;;;68.65;30.30;;;2.00;99.90;;;;;;4992213;28;20034;-74
2022/03/04 02:12:39;;;;;;;57.13;30.40;;;2.00;99.90;;;;;;4992546;28;20049;-74
2022/03/04 02:15:06;;;;;;;58.45;29.80;;;1.90;99.90;;;;;;4992155;28;20105;-74
2022/03/04 02:17:32;;;;;;;56.72;29.98;;;2.00;99.90;;;;;;4991957;28;20018;-74
2022/03/04 02:19:58;;;;;;;59.72;30.15;;;2.10;99.90;;;;;;4991917;28;20031;-74
2022/03/04 02:22:24;;;;;;;59.47;29.48;;;2.10;99.90;;;;;;4990752;28;20065;-75
2022/03/04 02:24:49;;;;;;;56.05;29.75;;;2.10;99.90;;;;;;4992058;28;20030;-74
2022/03/04 02:27:15;;;;;;;61.75;29.23;;;2.10;99.90;;;;;;4992131;28;20468;-74
2022/03/04 02:29:40;;;;;;;57.25;29.50;;;2.10;99.90;;;;;;4999262;28;20025;-73
2022/03/04 02:32:06;;;;;;;58.95;27.83;;;2.10;99.90;;;;;;4999090;28;20483;-73
2022/03/04 02:34:32;;;;;;;50.92;27.75;;;2.20;99.90;;;;;;4999059;28;20045;-75
2022/03/04 02:36:57;;;;;;;69.97;27.17;;;2.10;99.90;;;;;;4997363;28;20499;-74
2022/03/04 02:39:24;;;;;;;55.28;29.13;;;2.10;99.90;;;;;;4994830;28;20034;-75
2022/03/04 02:41:49;;;;;;;59.33;30.20;;;2.10;99.90;;;;;;4992471;28;20027;-74
2022/03/04 02:44:15;;;;;;;72.55;29.25;;;2.10;99.90;;;;;;4992677;28;20502;-75
2022/03/04 02:46:41;;;;;;;54.97;28.48;;;2.00;99.90;;;;;;4991643;28;20045;-75
2022/03/04 02:49:09;;;;;;;78.18;27.10;;;2.00;99.90;;;;;;4991375;28;20022;-74
2022/03/04 02:51:35;;;;;;;56.03;27.05;;;2.00;99.90;;;;;;4992342;28;20026;-74
2022/03/04 02:54:01;;;;;;;47.40;26.38;;;2.00;99.90;;;;;;4992681;28;20080;-74
2022/03/04 02:56:27;;;;;;;51.28;26.17;;;2.00;99.90;;;;;;4991077;28;20031;-74
2022/03/04 02:58:52;;;;;;;50.58;27.13;;;1.90;99.90;;;;;;4992725;28;20030;-74
2022/03/04 03:01:18;;;;;;;65.15;26.08;;;1.90;99.90;;;;;;4994520;28;20085;-74
2022/03/04 03:03:44;;;;;;;53.97;24.55;;;1.90;99.90;;;;;;4994921;28;20034;-74
2022/03/04 03:06:10;;;;;;;57.63;24.95;;;2.00;99.90;;;;;;4996281;28;20479;-75
2022/03/04 03:08:36;;;;;;;48.25;24.00;;;1.90;99.90;;;;;;4999240;28;20030;-74
2022/03/04 03:11:01;;;;;;;50.20;25.23;;;1.90;99.90;;;;;;5001959;28;20029;-74
2022/03/04 03:13:27;;;;;;;55.45;24.77;;;1.90;99.90;;;;;;5001022;28;20081;-74
2022/03/04 03:15:52;;;;;;;54.13;26.17;;;1.90;99.90;;;;;;4997987;28;20029;-75
2022/03/04 03:18:18;;;;;;;53.53;26.70;;;1.90;99.90;;;;;;4998972;28;20034;-74
2022/03/04 03:20:44;;;;;;;65.55;26.73;;;2.00;99.90;;;;;;5001322;28;20037;-75
2022/03/04 03:23:10;;;;;;;51.78;25.85;;;1.90;99.90;;;;;;4998591;28;20099;-74
2022/03/04 03:25:35;;;;;;;51.05;26.25;;;1.90;99.90;;;;;;4995303;28;20061;-73
2022/03/04 03:28:02;;;;;;;65.50;26.75;;;2.00;99.90;;;;;;4994808;28;20073;-74
2022/03/04 03:30:28;;;;;;;55.70;27.25;;;1.90;99.90;;;;;;4994538;28;20026;-73
2022/03/04 03:32:53;;;;;;;51.92;25.17;;;1.90;99.90;;;;;;4995089;28;20550;-73
2022/03/04 03:35:19;;;;;;;57.45;27.50;;;1.90;99.90;;;;;;4994568;28;20026;-74
2022/03/04 03:37:44;;;;;;;71.90;26.23;;;2.00;99.90;;;;;;4994432;28;20038;-74
2022/03/04 03:40:11;;;;;;;80.25;27.15;;;1.90;99.90;;;;;;4994929;28;20531;-75
2022/03/04 03:42:38;;;;;;;56.55;27.98;;;1.90;99.90;;;;;;4992837;28;20023;-75
2022/03/04 03:45:05;;;;;;;53.53;26.20;;;1.80;99.90;;;;;;4994466;28;20118;-75
2022/03/04 03:47:30;;;;;;;59.03;27.70;;;1.80;99.90;;;;;;4995188;28;20039;-75
2022/03/04 03:49:56;;;;;;;51.63;26.15;;;1.80;99.90;;;;;;4995457;28;20113;-74
2022/03/04 03:52:21;;;;;;;53.63;27.08;;;1.80;99.90;;;;;;4995302;28;20023;-74
2022/03/04 03:54:47;;;;;;;132.07;26.83;;;1.80;99.90;;;;;;4995649;28;20037;-74
2022/03/04 03:57:13;;;;;;;52.33;25.80;;;1.80;99.90;;;;;;4995782;28;20030;-74
2022/03/04 03:59:39;;;;;;;70.00;26.42;;;1.80;99.90;;;;;;4995515;28;20090;-74
2022/03/04 04:02:04;;;;;;;60.08;26.30;;;1.80;99.90;;;;;;4996395;28;20027;-73
2022/03/04 04:04:36;;;;;;;49.50;26.08;;;1.80;99.90;;;;;;4996590;28;20103;-74
2022/03/04 04:07:05;;;;;;;55.20;26.98;;;1.70;99.90;;;;;;4996208;28;20026;-74
2022/03/04 04:09:31;;;;;;;56.08;26.17;;;1.80;99.90;;;;;;4996001;28;20026;-73
2022/03/04 04:11:56;;;;;;;55.45;26.83;;;1.80;99.90;;;;;;4996144;28;20057;-73
2022/03/04 04:14:22;;;;;;;98.25;29.55;;;1.80;99.90;;;;;;4995789;28;20499;-73
2022/03/04 04:16:47;;;;;;;67.32;28.58;;;1.90;99.90;;;;;;4996078;28;20113;-73
2022/03/04 04:19:13;;;;;;;98.43;29.05;;;1.80;99.90;;;;;;4996354;28;20472;-75
2022/03/04 04:21:39;;;;;;;71.10;25.88;;;1.80;99.90;;;;;;4995394;28;20096;-73
2022/03/04 04:24:05;;;;;;;71.57;27.10;;;1.80;99.90;;;;;;4993858;28;20428;-73
2022/03/04 04:26:31;;;;;;;51.28;25.70;;;1.70;99.90;;;;;;4993485;28;20049;-75
2022/03/04 04:28:56;;;;;;;54.42;26.58;;;1.60;99.90;;;;;;4994032;28;20023;-72
2022/03/04 04:31:22;;;;;;;56.92;27.50;;;1.60;99.90;;;;;;4994646;28;20034;-73
2022/03/04 04:33:48;;;;;;;58.47;27.40;;;1.70;99.90;;;;;;4994812;28;20078;-74
2022/03/04 04:36:13;;;;;;;73.22;25.92;;;1.70;99.90;;;;;;4994289;28;20114;-74
2022/03/04 04:38:39;;;;;;;60.40;27.55;;;1.80;99.90;;;;;;4994532;28;20034;-74
2022/03/04 04:41:06;;;;;;;52.53;26.45;;;1.70;99.90;;;;;;4994656;28;20036;-74
2022/03/04 04:43:32;;;;;;;78.95;27.95;;;1.70;99.90;;;;;;4994032;28;20397;-73
2022/03/04 04:45:57;;;;;;;53.60;25.85;;;1.80;99.90;;;;;;4996794;28;20429;-74
2022/03/04 04:48:23;;;;;;;59.97;25.95;;;1.80;99.90;;;;;;4994249;28;20030;-74
2022/03/04 04:50:48;;;;;;;55.25;26.08;;;1.90;99.90;;;;;;4996487;28;20038;-74
2022/03/04 04:53:14;;;;;;;51.55;25.92;;;1.80;99.90;;;;;;4998073;28;20115;-72
2022/03/04 04:55:40;;;;;;;57.63;27.38;;;1.80;99.90;;;;;;5001054;28;20037;-72
2022/03/04 04:58:05;;;;;;;53.45;24.17;;;1.80;99.90;;;;;;5001102;28;20479;-72
2022/03/04 05:00:31;;;;;;;55.13;23.95;;;1.80;99.90;;;;;;4993485;28;20046;-73
2022/03/04 05:02:56;;;;;;;59.75;25.08;;;1.70;99.90;;;;;;4993379;28;20026;-73
2022/03/04 05:05:22;;;;;;;61.53;23.83;;;1.70;99.90;;;;;;4992955;28;20030;-73
2022/03/04 05:07:48;;;;;;;50.25;23.00;;;1.70;99.90;;;;;;4993065;28;20019;-72
2022/03/04 05:10:13;;;;;;;61.00;23.00;;;1.70;99.90;;;;;;4991642;28;20030;-74
2022/03/04 05:12:39;;;;;;;44.42;22.52;;;1.60;99.90;;;;;;4993038;28;20022;-74
2022/03/04 05:15:06;;;;;;;47.47;22.88;;;1.60;99.90;;;;;;4993123;28;20026;-74
2022/03/04 05:17:32;;;;;;;56.17;25.30;;;1.60;99.90;;;;;;4992932;28;20027;-72
2022/03/04 05:19:57;;;;;;;55.05;24.17;;;1.50;99.90;;;;;;4993298;28;20031;-73
2022/03/04 05:22:23;;;;;;;65.38;23.23;;;1.50;99.90;;;;;;4993264;28;20049;-74
2022/03/04 05:24:49;;;;;;;111.18;23.63;;;1.50;99.90;;;;;;4993738;28;20053;-73
2022/03/04 05:27:14;;;;;;;47.90;23.35;;;1.40;99.90;;;;;;4992589;28;20173;-73
2022/03/04 05:29:40;;;;;;;53.50;23.30;;;1.40;99.90;;;;;;4993705;28;20057;-73
2022/03/04 05:32:06;;;;;;;70.10;24.08;;;1.40;99.90;;;;;;4992081;28;20038;-72
2022/03/04 05:34:31;;;;;;;86.20;23.95;;;1.40;99.90;;;;;;4993093;28;20037;-73
2022/03/04 05:36:57;;;;;;;52.67;23.67;;;1.30;99.90;;;;;;4991877;28;20423;-73
2022/03/04 05:39:22;;;;;;;47.38;22.83;;;1.30;99.90;;;;;;4993911;28;20088;-75
2022/03/04 05:41:48;;;;;;;45.85;22.92;;;1.30;99.90;;;;;;4993665;28;20022;-74
2022/03/04 05:44:14;;;;;;;55.92;28.05;;;1.30;99.90;;;;;;4992356;28;20026;-70
2022/03/04 05:46:39;;;;;;;89.22;23.33;;;1.30;99.90;;;;;;4993145;28;20331;-74
2022/03/04 05:49:05;;;;;;;129.73;24.55;;;1.30;99.90;;;;;;4993841;28;20098;-73
2022/03/04 05:51:32;;;;;;;48.13;22.75;;;1.30;99.90;;;;;;4994706;28;20037;-74
2022/03/04 05:53:57;;;;;;;77.82;24.50;;;1.30;99.90;;;;;;4993662;28;20437;-77
2022/03/04 05:56:23;;;;;;;52.25;23.08;;;1.20;99.90;;;;;;4992841;28;20065;-70
2022/03/04 05:58:49;;;;;;;54.22;23.98;;;1.20;99.90;;;;;;4993477;28;20058;-71
2022/03/04 06:01:15;;;;;;;61.33;22.65;;;1.20;99.90;;;;;;4996818;28;20077;-70
2022/03/04 06:03:41;;;;;;;58.95;23.33;;;1.20;99.90;;;;;;4993666;28;20026;-72
2022/03/04 06:06:09;;;;;;;79.22;23.77;;;1.20;99.90;;;;;;4992842;28;20117;-72
2022/03/04 06:08:34;;;;;;;88.00;24.13;;;1.20;99.90;;;;;;4993364;28;20138;-70
2022/03/04 06:11:00;;;;;;;50.10;24.25;;;1.20;99.90;;;;;;4999350;28;20096;-70
2022/03/04 06:13:26;;;;;;;53.58;24.02;;;1.20;99.90;;;;;;4997209;28;20026;-70
2022/03/04 06:15:52;;;;;;;54.20;24.90;;;1.20;99.90;;;;;;4992804;28;20018;-72
2022/03/04 06:18:17;;;;;;;57.83;26.45;;;1.20;99.90;;;;;;4993681;28;20041;-71
2022/03/04 06:20:44;;;;;;;62.30;25.52;;;1.30;99.90;;;;;;4993240;28;20030;-70
2022/03/04 06:23:09;;;;;;;61.42;26.65;;;1.30;99.90;;;;;;4996869;28;20388;-70
2022/03/04 06:25:35;;;;;;;78.07;21.13;;;1.30;99.90;;;;;;4997262;28;20034;-70
2022/03/04 06:28:03;;;;;;;44.95;20.85;;;1.30;99.90;;;;;;4997229;28;20056;-70
2022/03/04 06:30:31;;;;;;;96.55;23.40;;;1.20;99.90;;;;;;4997567;28;20365;-73
2022/03/04 06:35:41;;;;;;;;;;;1.10;99.90;;;;;;4999022;28;20029;-71
2022/03/04 06:38:07;;;;;;;51.83;18.55;;;1.10;99.90;;;;;;4999273;28;20366;-71
2022/03/04 06:40:33;;;;;;;61.08;20.90;;;1.10;99.90;;;;;;4998681;28;20033;-70
2022/03/04 06:42:58;;;;;;;45.78;21.23;;;1.00;99.90;;;;;;4996331;28;20136;-70
2022/03/04 06:45:24;;;;;;;64.15;22.02;;;1.10;99.90;;;;;;4996990;28;20061;-70
2022/03/04 06:47:49;;;;;;;68.10;21.00;;;1.10;99.90;;;;;;4996930;28;20080;-70
2022/03/04 06:50:15;;;;;;;47.28;22.23;;;1.10;99.90;;;;;;4997233;28;20038;-71
2022/03/04 06:52:43;;;;;;;83.38;22.83;;;1.10;99.90;;;;;;4996229;28;20026;-71
2022/03/04 06:55:09;;;;;;;48.13;21.13;;;1.20;99.90;;;;;;4997557;28;20033;-71
2022/03/04 06:57:35;;;;;;;44.47;22.27;;;1.20;99.90;;;;;;4997148;28;20031;-71
2022/03/04 07:00:01;;;;;;;47.83;23.38;;;1.30;99.90;;;;;;4996926;28;20022;-71
2022/03/04 07:02:26;;;;;;;70.38;22.20;;;1.40;99.90;;;;;;4996927;28;20086;-79
2022/03/04 07:04:52;;;;;;;62.80;21.90;;;1.40;99.90;;;;;;4995556;28;20026;-71
2022/03/04 07:07:17;;;;;;;48.75;21.55;;;1.40;99.90;;;;;;4996224;28;20034;-71
2022/03/04 07:09:43;;;;;;;57.10;22.80;;;1.40;99.90;;;;;;4995957;28;20026;-70
2022/03/04 07:12:09;;;;;;;62.80;23.60;;;1.40;99.90;;;;;;5005706;28;20037;-70
2022/03/04 07:14:36;;;;;;;57.90;22.05;;;1.40;99.90;;;;;;5008285;28;20501;-70
2022/03/04 07:17:02;;;;;;;49.05;21.88;;;1.40;99.90;;;;;;5001460;28;20462;-75
2022/03/04 07:19:27;;;;;;;44.38;20.75;;;1.40;99.90;;;;;;4995715;28;20038;-70
2022/03/04 07:21:53;;;;;;;45.92;21.40;;;1.30;99.90;;;;;;4996349;28;20391;-70
2022/03/04 07:24:18;;;;;;;40.25;20.52;;;1.40;99.90;;;;;;4996029;28;20120;-70
2022/03/04 07:26:44;;;;;;;46.15;19.85;;;1.40;99.90;;;;;;4994811;28;20038;-70
2022/03/04 07:29:09;;;;;;;47.25;19.95;;;1.40;99.90;;;;;;4995573;28;20018;-70
2022/03/04 07:31:35;;;;;;;44.90;20.58;;;1.40;99.90;;;;;;4995990;28;20106;-70
2022/03/04 07:34:00;;;;;;;38.42;18.40;;;1.40;99.90;;;;;;4995932;28;20404;-76
2022/03/04 07:36:26;;;;;;;38.72;18.52;;;1.40;99.90;;;;;;4996363;28;20087;-70
2022/03/04 07:38:55;;;;;;;43.13;19.77;;;1.40;99.90;;;;;;4995504;28;20085;-70
2022/03/04 07:41:21;;;;;;;42.03;20.08;;;1.40;99.90;;;;;;5002453;28;20395;-70
2022/03/04 07:43:46;;;;;;;39.03;19.25;;;1.40;99.90;;;;;;4997114;28;20026;-69
2022/03/04 07:46:12;;;;;;;37.13;18.23;;;1.50;99.90;;;;;;4995004;28;20030;-70
2022/03/04 07:48:38;;;;;;;39.30;19.70;;;1.50;99.90;;;;;;4995221;28;20030;-69
2022/03/04 07:51:05;;;;;;;43.38;20.02;;;1.50;99.90;;;;;;4995605;28;20022;-69
2022/03/04 07:53:30;;;;;;;51.03;24.83;;;1.50;99.90;;;;;;4996453;28;20071;-70
2022/03/04 07:55:56;;;;;;;46.08;20.42;;;1.50;99.90;;;;;;4995121;28;20040;-70
2022/03/04 07:58:21;;;;;;;44.83;20.70;;;1.50;99.90;;;;;;4995365;28;20483;-70
2022/03/04 08:00:47;;;;;;;39.40;19.25;;;1.50;99.90;;;;;;4999447;28;20034;-71
2022/03/04 08:03:13;;;;;;;39.08;18.67;;;1.50;99.90;;;;;;4997828;28;20023;-70
2022/03/04 08:05:39;;;;;;;46.47;19.65;;;1.50;99.90;;;;;;4995880;28;20026;-68
2022/03/04 08:08:05;;;;;;;45.08;19.02;;;1.60;99.90;;;;;;4995601;28;20470;-69
2022/03/04 08:10:31;;;;;;;35.10;16.63;;;1.60;99.90;;;;;;4995626;28;20038;-71
2022/03/04 08:12:56;;;;;;;36.55;18.13;;;1.70;99.90;;;;;;4996174;28;20058;-70
2022/03/04 08:15:23;;;;;;;31.85;15.75;;;1.70;99.90;;;;;;4999648;28;20022;-70
2022/03/04 08:17:48;;;;;;;52.83;22.85;;;1.80;99.90;;;;;;4999085;28;20631;-70
2022/03/04 08:20:14;;;;;;;35.17;17.45;;;1.90;99.90;;;;;;4995655;28;20022;-70
2022/03/04 08:22:39;;;;;;;34.75;17.13;;;1.90;99.90;;;;;;4995931;28;20455;-71
2022/03/04 08:25:06;;;;;;;39.10;19.20;;;2.00;99.90;;;;;;4996409;28;20122;-70
2022/03/04 08:27:36;;;;;;;34.92;17.40;;;2.00;99.90;;;;;;4995036;28;20479;-70
2022/03/04 08:30:02;;;;;;;46.50;19.38;;;2.10;99.90;;;;;;4994888;28;20026;-71
2022/03/04 08:32:28;;;;;;;72.18;25.65;;;2.10;99.90;;;;;;4997504;28;20052;-71
2022/03/04 08:34:54;;;;;;;38.75;17.52;;;2.20;99.90;;;;;;4994587;28;20022;-70
2022/03/04 08:37:19;;;;;;;34.15;17.30;;;2.20;99.90;;;;;;4995081;28;20030;-70
2022/03/04 08:39:45;;;;;;;31.73;15.50;;;2.30;99.90;;;;;;4994616;28;20110;-70
2022/03/04 08:42:10;;;;;;;38.47;15.82;;;2.30;99.90;;;;;;4994756;28;20026;-71
2022/03/04 08:44:36;;;;;;;30.30;14.52;;;2.40;99.90;;;;;;4996218;28;20065;-70
2022/03/04 08:47:02;;;;;;;25.55;12.52;;;2.50;99.90;;;;;;4991506;28;20468;-69
2022/03/04 08:49:27;;;;;;;21.73;11.73;;;2.50;99.90;;;;;;4994708;28;20026;-69
2022/03/04 08:51:53;;;;;;;22.15;11.93;;;2.50;99.90;;;;;;4995734;28;20054;-72
2022/03/04 08:54:18;;;;;;;31.85;14.23;;;2.40;99.90;;;;;;4996902;28;20117;-71
2022/03/04 08:56:44;;;;;;;29.15;13.90;;;2.50;99.90;;;;;;4997770;28;20109;-70
2022/03/04 08:59:09;;;;;;;27.30;14.38;;;2.50;99.90;;;;;;4998735;28;20062;-70
2022/03/04 09:01:35;;;;;;;28.85;14.38;;;2.60;99.90;;;;;;4998903;28;20027;-71
2022/03/04 09:04:00;;;;;;;37.05;15.35;;;2.60;99.90;;;;;;4997807;28;20073;-71
2022/03/04 09:06:26;;;;;;;24.52;13.27;;;2.70;99.90;;;;;;4997559;28;20042;-71
2022/03/04 09:08:51;;;;;;;31.40;14.32;;;2.70;99.90;;;;;;4998447;28;20065;-70
2022/03/04 09:11:17;;;;;;;30.92;15.52;;;2.80;99.90;;;;;;4998976;28;20014;-71
2022/03/04 09:13:42;;;;;;;27.98;13.57;;;2.90;99.90;;;;;;4999469;28;20026;-70
2022/03/04 09:16:08;;;;;;;26.70;13.02;;;3.00;99.90;;;;;;4997786;28;20039;-71
2022/03/04 09:18:34;;;;;;;25.45;13.05;;;3.10;99.90;;;;;;4997803;28;20094;-71
2022/03/04 09:21:00;;;;;;;27.10;13.57;;;3.20;99.90;;;;;;4997803;28;20030;-70
2022/03/04 09:23:26;;;;;;;23.00;12.73;;;3.20;99.90;;;;;;4998445;28;20049;-71
2022/03/04 09:25:52;;;;;;;21.75;12.25;;;3.20;99.90;;;;;;4999927;28;20057;-71
2022/03/04 09:28:18;;;;;;;24.35;12.38;;;3.30;99.90;;;;;;5000818;28;20410;-71
2022/03/04 09:30:44;;;;;;;25.45;12.57;;;3.30;99.90;;;;;;4996951;28;20078;-71
2022/03/04 09:33:09;;;;;;;26.30;12.40;;;3.40;99.90;;;;;;4997168;28;20054;-70
2022/03/04 09:35:35;;;;;;;25.17;13.30;;;3.30;99.90;;;;;;4996732;28;20066;-71
2022/03/04 09:38:01;;;;;;;27.20;13.18;;;3.40;99.90;;;;;;4997944;28;20045;-71
2022/03/04 09:40:27;;;;;;;30.58;13.73;;;3.30;99.90;;;;;;5000155;28;20022;-69
2022/03/04 09:42:54;;;;;;;34.65;14.77;;;3.30;99.90;;;;;;4993301;28;20475;-71
2022/03/04 09:45:20;;;;;;;26.83;14.10;;;3.40;99.90;;;;;;4993676;28;20519;-69
2022/03/04 09:47:46;;;;;;;31.27;14.90;;;3.40;99.90;;;;;;4995001;28;20046;-73
2022/03/04 09:50:16;;;;;;;33.13;16.25;;;3.50;99.90;;;;;;4996060;28;20052;-73
2022/03/04 09:52:41;;;;;;;34.78;17.60;;;3.50;99.90;;;;;;4994358;28;20018;-71
2022/03/04 09:55:08;;;;;;;33.67;15.73;;;3.50;99.90;;;;;;4992958;28;20029;-70
2022/03/04 09:57:34;;;;;;;36.22;17.48;;;3.50;99.90;;;;;;4992461;28;20065;-72
2022/03/04 09:59:59;;;;;;;37.17;16.92;;;3.60;99.90;;;;;;4993067;28;20054;-72
2022/03/04 10:02:25;;;;;;;25.17;11.80;;;3.70;99.90;;;;;;4992605;28;20018;-71
2022/03/04 10:04:58;;;;;;;27.02;12.23;;;3.90;99.90;;;;;;4993173;28;20045;-72
2022/03/04 10:07:24;;;;;;;25.25;11.60;;;4.10;99.90;;;;;;4992275;28;20438;-73
2022/03/04 10:09:50;;;;;;;27.92;11.30;;;4.20;99.90;;;;;;4992759;28;20058;-72
2022/03/04 10:12:18;;;;;;;29.83;12.20;;;4.40;99.90;;;;;;4993193;28;20093;-73
2022/03/04 10:15:07;;;;;;;23.27;11.35;;;4.60;99.90;;;;;;4995777;28;20353;-73
2022/03/04 10:17:38;;;;;;;23.20;11.65;;;4.80;99.90;;;;;;4993911;28;20543;-72
2022/03/04 10:20:07;;;;;;;21.83;9.82;;;5.10;99.90;;;;;;4994005;28;20093;-73
2022/03/04 10:22:42;;;;;;;20.00;9.48;;;5.10;99.90;;;;;;5000094;28;20022;-74
2022/03/04 10:25:20;;;;;;;21.00;10.10;;;5.10;99.90;;;;;;4993017;28;20022;-72
2022/03/04 10:27:47;;;;;;;24.52;11.35;;;5.10;99.90;;;;;;4994547;28;20062;-71
2022/03/04 10:30:15;;;;;;;18.48;9.88;;;5.00;99.90;;;;;;4993070;28;20018;-72
2022/03/04 10:32:41;;;;;;;19.00;9.75;;;5.10;99.90;;;;;;4993240;28;20434;-73
2022/03/04 10:35:08;;;;;;;22.25;10.23;;;5.20;99.90;;;;;;4994157;28;20534;-71
2022/03/04 10:37:56;;;;;;;24.52;10.02;;;5.60;99.90;;;;;;4993577;28;20105;-70
2022/03/04 10:40:23;;;;;;;18.83;9.13;;;6.40;99.90;;;;;;4993669;28;20030;-70
2022/03/04 10:42:53;;;;;;;21.25;9.15;;;6.70;99.90;;;;;;4993618;28;20080;-71
2022/03/04 10:45:25;;;;;;;15.60;8.80;;;7.10;99.90;;;;;;4996484;28;20023;-71
2022/03/04 10:47:52;;;;;;;18.15;8.50;;;7.50;99.90;;;;;;4993652;28;20114;-73
2022/03/04 10:50:33;;;;;;;16.10;8.63;;;8.20;99.90;;;;;;4994564;28;20022;-73
2022/03/04 10:53:07;;;;;;;22.67;8.93;;;8.70;99.90;;;;;;4995156;28;20027;-73
2022/03/04 10:55:44;;;;;;;21.60;8.73;;;9.70;99.90;;;;;;4993728;28;20018;-73
2022/03/04 10:58:20;;;;;;;20.27;8.23;;;11.30;99.90;;;;;;4994236;28;20491;-73
2022/03/04 11:00:47;;;;;;;15.48;7.45;;;12.20;99.90;;;;;;4995672;28;20086;-73
2022/03/04 11:03:21;;;;;;;12.82;7.40;;;12.90;99.90;;;;;;5000487;28;20033;-72
2022/03/04 11:05:48;;;;;;;12.52;5.85;;;12.80;99.90;;;;;;4994134;28;20038;-76
2022/03/04 11:08:14;;;;;;;17.98;7.15;;;13.50;99.90;;;;;;4992025;28;20035;-72
2022/03/04 11:10:40;;;;;;;14.38;7.15;;;14.60;99.90;;;;;;4992736;28;20062;-71
2022/03/04 11:13:07;;;;;;;11.30;6.00;;;15.60;99.90;;;;;;4993642;28;20531;-72
2022/03/04 11:15:34;;;;;;;13.85;5.82;;;;;;;;;;4994001;28;20417;-71
2022/03/04 11:18:06;;;;;;;9.25;5.70;;;17.90;92.90;;;;;;4992163;28;20077;-73
2022/03/04 11:20:33;;;;;;;13.57;5.60;;;18.30;85.50;;;;;;4996665;28;20022;-72
2022/03/04 11:22:59;;;;;;;13.15;5.72;;;18.60;82.90;;;;;;4997557;28;20598;-74
2022/03/04 11:25:25;;;;;;;9.70;5.18;;;18.80;78.50;;;;;;4996006;28;20662;-72
2022/03/04 11:27:52;;;;;;;7.93;4.78;;;19.00;74.50;;;;;;4996903;28;20026;-72
2022/03/04 11:30:37;;;;;;;11.18;5.45;;;19.30;72.40;;;;;;4996724;28;20019;-73
2022/03/04 11:33:21;;;;;;;9.40;5.10;;;19.60;74.20;;;;;;4996522;28;20029;-73
2022/03/04 11:35:58;;;;;;;8.20;4.85;;;19.50;69.10;;;;;;4995809;28;20026;-74
2022/03/04 11:38:48;;;;;;;8.55;4.88;;;19.30;67.10;;;;;;4997375;28;20102;-71
2022/03/04 11:41:17;;;;;;;12.43;5.47;;;19.80;74.30;;;;;;4997564;28;20030;-71
2022/03/04 11:43:45;;;;;;;12.18;5.07;;;20.30;63.80;;;;;;4997758;28;20545;-72
2022/03/04 11:46:25;;;;;;;19.95;10.70;;;20.60;63.50;;;;;;4994889;28;20121;-73
2022/03/04 11:49:24;;;;;;;11.98;4.75;;;20.40;64.50;;;;;;4998788;28;20014;-71
2022/03/04 11:52:07;;;;;;;7.10;4.57;;;20.30;64.90;;;;;;4995556;28;20106;-73
2022/03/04 11:54:34;;;;;;;7.97;4.68;;;20.60;59.60;;;;;;4997999;28;20033;-73
2022/03/04 11:57:00;;;;;;;9.75;4.60;;;;;;;;;;4996249;28;20446;-71
2022/03/04 11:59:26;;;;;;;14.63;5.38;;;21.00;58.30;;;;;;4996168;28;20249;-71
2022/03/04 12:01:51;;;;;;;11.75;4.80;;;21.40;56.60;;;;;;4996701;28;20034;-73
2022/03/04 12:04:18;;;;;;;13.43;6.68;;;21.60;55.00;;;;;;4996492;28;20030;-73
2022/03/04 12:07:08;;;;;;;8.82;4.47;;;21.60;55.20;;;;;;4998315;28;20030;-73
2022/03/04 12:09:34;;;;;;;11.77;4.18;;;21.50;54.20;;;;;;4997357;28;20037;-73
2022/03/04 12:12:24;;;;;;;10.38;4.47;;;21.40;53.80;;;;;;4997783;28;20026;-72
2022/03/04 12:15:14;;;;;;;8.90;5.07;;;21.70;54.00;;;;;;4999847;28;20138;-71
2022/03/04 12:18:02;;;;;;;8.48;4.88;;;21.50;53.10;;;;;;4994501;28;20053;-73
2022/03/04 12:20:47;;;;;;;10.20;5.00;;;22.40;51.60;;;;;;4996004;28;20029;-72
2022/03/04 12:23:17;;;;;;;10.93;4.60;;;22.40;51.00;;;;;;4974862;28;20349;-73
2022/03/04 12:25:54;;;;;;;6.35;4.28;;;22.70;50.30;;;;;;4996246;28;20126;-74
2022/03/04 12:28:30;;;;;;;7.63;4.53;;;22.40;50.10;;;;;;4996340;28;20057;-75
2022/03/04 12:31:02;;;;;;;7.38;4.40;;;21.90;50.10;;;;;;4996288;28;20026;-74
2022/03/04 12:33:27;;;;;;;8.05;4.32;;;22.20;50.90;;;;;;4998088;28;20030;-74
2022/03/04 12:35:57;;;;;;;7.43;4.13;;;22.40;49.10;;;;;;4993631;28;20545;-70
2022/03/04 12:38:27;;;;;;;7.43;4.25;;;22.40;48.50;;;;;;4995494;28;20049;-70
2022/03/04 12:40:59;;;;;;;7.97;4.43;;;22.40;48.50;;;;;;4995431;28;20030;-72